sensor_id;sensor_type;location;lat;lon;timestamp;temperature;humidity
23609;DHT22;11982;50.810;4.442;2024-01-30T00:01:51;11.00;99.90
23609;DHT22;11982;50.810;4.442;2024-01-30T00:04:16;11.00;99.90
23609;DHT22;11982;50.810;4.442;2024-01-30T00:06:43;11.00;99.90
23609;DHT22;11982;50.810;4.442;2024-01-30T00:09:08;11.00;99.90
23609;DHT22;11982;50.810;4.442;2024-01-30T00:11:36;11.00;99.90
23609;DHT22;11982;50.810;4.442;2024-01-30T00:14:03;11.00;99.90
23609;DHT22;11982;50.810;4.442;2024-01-30T00:16:29;11.00;99.90
23609;DHT22;11982;50.810;4.442;2024-01-30T00:18:55;11.00;99.90
23609;DHT22;11982;50.810;4.442;2024-01-30T00:21:20;10.90;99.90
23609;DHT22;11982;50.810;4.442;2024-01-30T00:23:46;10.90;99.90
23609;DHT22;11982;50.810;4.442;2024-01-30T00:26:13;10.90;99.90
23609;DHT22;11982;50.810;4.442;2024-01-30T00:28:40;10.80;99.90
23609;DHT22;11982;50.810;4.442;2024-01-30T00:31:06;10.90;99.90
23609;DHT22;11982;50.810;4.442;2024-01-30T00:33:32;11.00;99.90
23609;DHT22;11982;50.810;4.442;2024-01-30T00:35:57;11.00;99.90
23609;DHT22;11982;50.810;4.442;2024-01-30T00:38:23;10.90;99.90
23609;DHT22;11982;50.810;4.442;2024-01-30T00:40:49;10.80;99.90
23609;DHT22;11982;50.810;4.442;2024-01-30T00:43:15;10.90;99.90
23609;DHT22;11982;50.810;4.442;2024-01-30T00:45:41;11.00;99.90
23609;DHT22;11982;50.810;4.442;2024-01-30T00:48:07;11.00;99.90
23609;DHT22;11982;50.810;4.442;2024-01-30T00:50:32;11.00;99.90
23609;DHT22;11982;50.810;4.442;2024-01-30T00:52:58;11.00;99.90
23609;DHT22;11982;50.810;4.442;2024-01-30T00:55:24;11.00;99.90
23609;DHT22;11982;50.810;4.442;2024-01-30T00:57:49;11.00;99.90
23609;DHT22;11982;50.810;4.442;2024-01-30T01:00:15;11.00;99.90
23609;DHT22;11982;50.810;4.442;2024-01-30T01:02:46;11.00;99.90
23609;DHT22;11982;50.810;4.442;2024-01-30T01:05:12;11.00;99.90
23609;DHT22;11982;50.810;4.442;2024-01-30T01:07:37;11.00;99.90
23609;DHT22;11982;50.810;4.442;2024-01-30T01:10:03;11.10;99.90
23609;DHT22;11982;50.810;4.442;2024-01-30T01:12:29;11.10;99.90
23609;DHT22;11982;50.810;4.442;2024-01-30T01:14:55;11.10;99.90
23609;DHT22;11982;50.810;4.442;2024-01-30T01:17:20;11.10;99.90
23609;DHT22;11982;50.810;4.442;2024-01-30T01:19:46;11.10;99.90
23609;DHT22;11982;50.810;4.442;2024-01-30T01:22:12;11.10;99.90
23609;DHT22;11982;50.810;4.442;2024-01-30T01:24:37;11.10;99.90
23609;DHT22;11982;50.810;4.442;2024-01-30T01:27:03;11.10;99.90
23609;DHT22;11982;50.810;4.442;2024-01-30T01:29:29;11.10;99.90
23609;DHT22;11982;50.810;4.442;2024-01-30T01:31:55;11.20;99.90
23609;DHT22;11982;50.810;4.442;2024-01-30T01:34:21;11.20;99.90
23609;DHT22;11982;50.810;4.442;2024-01-30T01:36:48;11.20;99.90
23609;DHT22;11982;50.810;4.442;2024-01-30T01:39:14;11.20;99.90
23609;DHT22;11982;50.810;4.442;2024-01-30T01:41:39;11.20;99.90
23609;DHT22;11982;50.810;4.442;2024-01-30T01:44:05;11.30;99.90
23609;DHT22;11982;50.810;4.442;2024-01-30T01:46:34;11.20;99.90
23609;DHT22;11982;50.810;4.442;2024-01-30T01:49:04;11.30;99.90
23609;DHT22;11982;50.810;4.442;2024-01-30T01:51:31;11.30;99.90
23609;DHT22;11982;50.810;4.442;2024-01-30T01:54:02;11.30;99.90
23609;DHT22;11982;50.810;4.442;2024-01-30T01:56:29;11.30;99.90
23609;DHT22;11982;50.810;4.442;2024-01-30T01:59:00;11.30;99.90
23609;DHT22;11982;50.810;4.442;2024-01-30T02:01:26;11.30;99.90
23609;DHT22;11982;50.810;4.442;2024-01-30T02:03:52;11.30;99.90
23609;DHT22;11982;50.810;4.442;2024-01-30T02:06:18;11.30;99.90
23609;DHT22;11982;50.810;4.442;2024-01-30T02:08:44;11.30;99.90
23609;DHT22;11982;50.810;4.442;2024-01-30T02:11:10;11.40;99.90
23609;DHT22;11982;50.810;4.442;2024-01-30T02:13:37;11.40;99.90
23609;DHT22;11982;50.810;4.442;2024-01-30T02:16:02;11.40;99.90
23609;DHT22;11982;50.810;4.442;2024-01-30T02:18:28;11.30;99.90
23609;DHT22;11982;50.810;4.442;2024-01-30T02:20:56;11.30;99.90
23609;DHT22;11982;50.810;4.442;2024-01-30T02:23:24;11.30;99.90
23609;DHT22;11982;50.810;4.442;2024-01-30T02:25:53;11.30;99.90
23609;DHT22;11982;50.810;4.442;2024-01-30T02:28:19;11.30;99.90
23609;DHT22;11982;50.810;4.442;2024-01-30T02:30:46;11.40;99.90
23609;DHT22;11982;50.810;4.442;2024-01-30T02:33:14;11.40;99.90
23609;DHT22;11982;50.810;4.442;2024-01-30T02:35:40;11.40;99.90
23609;DHT22;11982;50.810;4.442;2024-01-30T02:38:06;11.40;99.90
23609;DHT22;11982;50.810;4.442;2024-01-30T02:40:32;11.50;99.90
23609;DHT22;11982;50.810;4.442;2024-01-30T02:42:59;11.60;99.90
23609;DHT22;11982;50.810;4.442;2024-01-30T02:45:25;11.50;99.90
23609;DHT22;11982;50.810;4.442;2024-01-30T02:47:51;11.60;99.90
23609;DHT22;11982;50.810;4.442;2024-01-30T02:50:16;11.60;99.90
23609;DHT22;11982;50.810;4.442;2024-01-30T02:52:43;11.60;99.90
23609;DHT22;11982;50.810;4.442;2024-01-30T02:55:09;11.60;99.90
23609;DHT22;11982;50.810;4.442;2024-01-30T02:57:35;11.60;99.90
23609;DHT22;11982;50.810;4.442;2024-01-30T03:00:01;11.50;99.90
23609;DHT22;11982;50.810;4.442;2024-01-30T03:02:26;11.50;99.90
23609;DHT22;11982;50.810;4.442;2024-01-30T03:04:52;11.50;99.90
23609;DHT22;11982;50.810;4.442;2024-01-30T03:07:18;11.50;99.90
23609;DHT22;11982;50.810;4.442;2024-01-30T03:09:44;11.50;99.90
23609;DHT22;11982;50.810;4.442;2024-01-30T03:12:10;11.50;99.90
23609;DHT22;11982;50.810;4.442;2024-01-30T03:14:35;11.40;99.90
23609;DHT22;11982;50.810;4.442;2024-01-30T03:17:01;11.40;99.90
23609;DHT22;11982;50.810;4.442;2024-01-30T03:19:27;11.40;99.90
23609;DHT22;11982;50.810;4.442;2024-01-30T03:21:52;11.40;99.90
23609;DHT22;11982;50.810;4.442;2024-01-30T03:24:18;11.30;99.90
23609;DHT22;11982;50.810;4.442;2024-01-30T03:26:44;11.30;99.90
23609;DHT22;11982;50.810;4.442;2024-01-30T03:29:10;11.40;99.90
23609;DHT22;11982;50.810;4.442;2024-01-30T03:31:36;11.40;99.90
23609;DHT22;11982;50.810;4.442;2024-01-30T03:34:02;11.40;99.90
23609;DHT22;11982;50.810;4.442;2024-01-30T03:36:28;11.40;99.90
23609;DHT22;11982;50.810;4.442;2024-01-30T03:38:53;11.40;99.90
23609;DHT22;11982;50.810;4.442;2024-01-30T03:41:19;11.40;99.90
23609;DHT22;11982;50.810;4.442;2024-01-30T03:43:46;11.40;99.90
23609;DHT22;11982;50.810;4.442;2024-01-30T03:46:12;11.50;99.90
23609;DHT22;11982;50.810;4.442;2024-01-30T03:48:38;11.50;99.90
23609;DHT22;11982;50.810;4.442;2024-01-30T03:51:04;11.50;99.90
23609;DHT22;11982;50.810;4.442;2024-01-30T03:53:30;11.50;99.90
23609;DHT22;11982;50.810;4.442;2024-01-30T03:55:56;11.50;99.90
23609;DHT22;11982;50.810;4.442;2024-01-30T03:58:22;11.40;99.90
23609;DHT22;11982;50.810;4.442;2024-01-30T04:00:47;11.60;99.90
23609;DHT22;11982;50.810;4.442;2024-01-30T04:03:17;11.40;99.90
23609;DHT22;11982;50.810;4.442;2024-01-30T04:05:43;11.40;99.90
23609;DHT22;11982;50.810;4.442;2024-01-30T04:08:09;11.30;99.90
23609;DHT22;11982;50.810;4.442;2024-01-30T04:10:35;11.20;99.90
23609;DHT22;11982;50.810;4.442;2024-01-30T04:13:00;11.20;99.90
23609;DHT22;11982;50.810;4.442;2024-01-30T04:15:26;11.20;99.90
23609;DHT22;11982;50.810;4.442;2024-01-30T04:17:52;11.20;99.90
23609;DHT22;11982;50.810;4.442;2024-01-30T04:20:18;11.20;99.90
23609;DHT22;11982;50.810;4.442;2024-01-30T04:22:44;11.10;99.90
23609;DHT22;11982;50.810;4.442;2024-01-30T04:25:10;11.10;99.90
23609;DHT22;11982;50.810;4.442;2024-01-30T04:27:36;11.10;99.90
23609;DHT22;11982;50.810;4.442;2024-01-30T04:30:02;11.10;99.90
23609;DHT22;11982;50.810;4.442;2024-01-30T04:32:28;11.10;99.90
23609;DHT22;11982;50.810;4.442;2024-01-30T04:34:53;11.20;99.90
23609;DHT22;11982;50.810;4.442;2024-01-30T04:37:19;11.20;99.90
23609;DHT22;11982;50.810;4.442;2024-01-30T04:39:44;11.30;99.90
23609;DHT22;11982;50.810;4.442;2024-01-30T04:42:10;11.20;99.90
23609;DHT22;11982;50.810;4.442;2024-01-30T04:44:36;11.20;99.90
23609;DHT22;11982;50.810;4.442;2024-01-30T04:47:01;11.20;99.90
23609;DHT22;11982;50.810;4.442;2024-01-30T04:49:28;11.30;99.90
23609;DHT22;11982;50.810;4.442;2024-01-30T04:51:54;11.30;99.90
23609;DHT22;11982;50.810;4.442;2024-01-30T04:54:21;11.30;99.90
23609;DHT22;11982;50.810;4.442;2024-01-30T04:56:46;11.30;99.90
23609;DHT22;11982;50.810;4.442;2024-01-30T04:59:12;11.40;99.90
23609;DHT22;11982;50.810;4.442;2024-01-30T05:01:38;11.40;99.90
23609;DHT22;11982;50.810;4.442;2024-01-30T05:04:03;11.40;99.90
23609;DHT22;11982;50.810;4.442;2024-01-30T05:06:29;11.40;99.90
23609;DHT22;11982;50.810;4.442;2024-01-30T05:08:55;11.40;99.90
23609;DHT22;11982;50.810;4.442;2024-01-30T05:11:21;11.50;99.90
23609;DHT22;11982;50.810;4.442;2024-01-30T05:13:47;11.40;99.90
23609;DHT22;11982;50.810;4.442;2024-01-30T05:16:13;11.50;99.90
23609;DHT22;11982;50.810;4.442;2024-01-30T05:18:39;11.40;99.90
23609;DHT22;11982;50.810;4.442;2024-01-30T05:21:05;11.30;99.90
23609;DHT22;11982;50.810;4.442;2024-01-30T05:23:31;11.30;99.90
23609;DHT22;11982;50.810;4.442;2024-01-30T05:25:57;11.30;99.90
23609;DHT22;11982;50.810;4.442;2024-01-30T05:28:22;11.20;99.90
23609;DHT22;11982;50.810;4.442;2024-01-30T05:30:48;11.30;99.90
23609;DHT22;11982;50.810;4.442;2024-01-30T05:33:14;11.30;99.90
23609;DHT22;11982;50.810;4.442;2024-01-30T05:35:40;11.20;99.90
23609;DHT22;11982;50.810;4.442;2024-01-30T05:38:05;11.20;99.90
23609;DHT22;11982;50.810;4.442;2024-01-30T05:40:31;11.10;99.90
23609;DHT22;11982;50.810;4.442;2024-01-30T05:42:57;11.20;99.90
23609;DHT22;11982;50.810;4.442;2024-01-30T05:45:28;11.10;99.90
23609;DHT22;11982;50.810;4.442;2024-01-30T05:47:53;11.20;99.90
23609;DHT22;11982;50.810;4.442;2024-01-30T05:50:19;11.20;99.90
23609;DHT22;11982;50.810;4.442;2024-01-30T05:52:45;11.20;99.90
23609;DHT22;11982;50.810;4.442;2024-01-30T05:55:12;11.10;99.90
23609;DHT22;11982;50.810;4.442;2024-01-30T05:57:38;11.00;99.90
23609;DHT22;11982;50.810;4.442;2024-01-30T06:00:05;11.00;99.90
23609;DHT22;11982;50.810;4.442;2024-01-30T06:02:31;11.10;99.90
23609;DHT22;11982;50.810;4.442;2024-01-30T06:04:57;11.10;99.90
23609;DHT22;11982;50.810;4.442;2024-01-30T06:07:22;11.10;99.90
23609;DHT22;11982;50.810;4.442;2024-01-30T06:09:48;11.10;99.90
23609;DHT22;11982;50.810;4.442;2024-01-30T06:12:14;11.10;99.90
23609;DHT22;11982;50.810;4.442;2024-01-30T06:14:39;11.00;99.90
23609;DHT22;11982;50.810;4.442;2024-01-30T06:17:08;11.00;99.90
23609;DHT22;11982;50.810;4.442;2024-01-30T06:19:33;10.90;99.90
23609;DHT22;11982;50.810;4.442;2024-01-30T06:21:59;10.90;99.90
23609;DHT22;11982;50.810;4.442;2024-01-30T06:24:25;10.90;99.90
23609;DHT22;11982;50.810;4.442;2024-01-30T06:26:51;10.80;99.90
23609;DHT22;11982;50.810;4.442;2024-01-30T06:29:17;10.80;99.90
23609;DHT22;11982;50.810;4.442;2024-01-30T06:31:42;10.80;99.90
23609;DHT22;11982;50.810;4.442;2024-01-30T06:34:09;10.80;99.90
23609;DHT22;11982;50.810;4.442;2024-01-30T06:36:35;10.90;99.90
23609;DHT22;11982;50.810;4.442;2024-01-30T06:39:02;10.80;99.90
23609;DHT22;11982;50.810;4.442;2024-01-30T06:41:28;10.80;99.90
23609;DHT22;11982;50.810;4.442;2024-01-30T06:43:54;10.80;99.90
23609;DHT22;11982;50.810;4.442;2024-01-30T06:46:19;10.90;99.90
23609;DHT22;11982;50.810;4.442;2024-01-30T06:48:45;11.00;99.90
23609;DHT22;11982;50.810;4.442;2024-01-30T06:51:11;10.90;99.90
23609;DHT22;11982;50.810;4.442;2024-01-30T06:53:38;10.80;99.90
23609;DHT22;11982;50.810;4.442;2024-01-30T06:56:04;10.80;99.90
23609;DHT22;11982;50.810;4.442;2024-01-30T06:58:30;10.80;99.90
23609;DHT22;11982;50.810;4.442;2024-01-30T07:00:56;10.80;99.90
23609;DHT22;11982;50.810;4.442;2024-01-30T07:03:21;10.80;99.90
23609;DHT22;11982;50.810;4.442;2024-01-30T07:05:47;10.90;99.90
23609;DHT22;11982;50.810;4.442;2024-01-30T07:08:15;10.80;99.90
23609;DHT22;11982;50.810;4.442;2024-01-30T07:10:45;10.80;99.90
23609;DHT22;11982;50.810;4.442;2024-01-30T07:13:11;10.70;99.90
23609;DHT22;11982;50.810;4.442;2024-01-30T07:15:37;10.70;99.90
23609;DHT22;11982;50.810;4.442;2024-01-30T07:18:03;10.70;99.90
23609;DHT22;11982;50.810;4.442;2024-01-30T07:20:30;10.70;99.90
23609;DHT22;11982;50.810;4.442;2024-01-30T07:22:58;10.70;99.90
23609;DHT22;11982;50.810;4.442;2024-01-30T07:25:23;10.80;99.90
23609;DHT22;11982;50.810;4.442;2024-01-30T07:27:52;10.90;99.90
23609;DHT22;11982;50.810;4.442;2024-01-30T07:30:19;11.00;99.90
23609;DHT22;11982;50.810;4.442;2024-01-30T07:32:46;11.00;99.90
23609;DHT22;11982;50.810;4.442;2024-01-30T07:35:12;11.00;99.90
23609;DHT22;11982;50.810;4.442;2024-01-30T07:37:37;11.00;99.90
23609;DHT22;11982;50.810;4.442;2024-01-30T07:40:04;11.10;99.90
23609;DHT22;11982;50.810;4.442;2024-01-30T07:42:29;11.10;99.90
23609;DHT22;11982;50.810;4.442;2024-01-30T07:44:55;11.20;99.90
23609;DHT22;11982;50.810;4.442;2024-01-30T07:47:21;11.30;99.90
23609;DHT22;11982;50.810;4.442;2024-01-30T07:49:46;11.30;99.90
23609;DHT22;11982;50.810;4.442;2024-01-30T07:52:13;11.30;99.90
23609;DHT22;11982;50.810;4.442;2024-01-30T07:54:39;11.40;99.90
23609;DHT22;11982;50.810;4.442;2024-01-30T07:57:04;11.40;99.90
23609;DHT22;11982;50.810;4.442;2024-01-30T07:59:30;11.40;99.90
23609;DHT22;11982;50.810;4.442;2024-01-30T08:01:56;11.40;99.90
23609;DHT22;11982;50.810;4.442;2024-01-30T08:04:21;11.40;99.90
23609;DHT22;11982;50.810;4.442;2024-01-30T08:06:47;11.40;99.90
23609;DHT22;11982;50.810;4.442;2024-01-30T08:09:12;11.40;99.90
23609;DHT22;11982;50.810;4.442;2024-01-30T08:11:38;11.50;99.90
23609;DHT22;11982;50.810;4.442;2024-01-30T08:14:04;11.40;99.90
23609;DHT22;11982;50.810;4.442;2024-01-30T08:16:29;11.50;99.90
23609;DHT22;11982;50.810;4.442;2024-01-30T08:18:55;11.50;99.90
23609;DHT22;11982;50.810;4.442;2024-01-30T08:21:23;11.50;99.90
23609;DHT22;11982;50.810;4.442;2024-01-30T08:23:48;11.50;99.90
23609;DHT22;11982;50.810;4.442;2024-01-30T08:26:14;11.50;99.90
23609;DHT22;11982;50.810;4.442;2024-01-30T08:28:40;11.50;99.90
23609;DHT22;11982;50.810;4.442;2024-01-30T08:31:05;11.50;99.90
23609;DHT22;11982;50.810;4.442;2024-01-30T08:33:31;11.50;99.90
23609;DHT22;11982;50.810;4.442;2024-01-30T08:35:57;11.60;99.90
23609;DHT22;11982;50.810;4.442;2024-01-30T08:38:22;11.70;99.90
23609;DHT22;11982;50.810;4.442;2024-01-30T08:40:48;11.80;99.90
23609;DHT22;11982;50.810;4.442;2024-01-30T08:43:14;11.80;99.90
23609;DHT22;11982;50.810;4.442;2024-01-30T08:45:40;11.90;99.90
23609;DHT22;11982;50.810;4.442;2024-01-30T08:48:07;11.80;99.90
23609;DHT22;11982;50.810;4.442;2024-01-30T08:50:33;11.90;99.90
23609;DHT22;11982;50.810;4.442;2024-01-30T08:52:59;12.00;99.90
23609;DHT22;11982;50.810;4.442;2024-01-30T08:55:24;11.90;99.90
23609;DHT22;11982;50.810;4.442;2024-01-30T08:57:50;11.90;99.90
23609;DHT22;11982;50.810;4.442;2024-01-30T09:00:17;11.90;99.90
23609;DHT22;11982;50.810;4.442;2024-01-30T09:02:43;11.90;99.90
23609;DHT22;11982;50.810;4.442;2024-01-30T09:05:09;11.90;99.90
23609;DHT22;11982;50.810;4.442;2024-01-30T09:07:34;11.80;99.90
23609;DHT22;11982;50.810;4.442;2024-01-30T09:10:00;11.80;99.90
23609;DHT22;11982;50.810;4.442;2024-01-30T09:12:26;11.80;99.90
23609;DHT22;11982;50.810;4.442;2024-01-30T09:14:52;11.80;99.90
23609;DHT22;11982;50.810;4.442;2024-01-30T09:17:17;11.80;99.90
23609;DHT22;11982;50.810;4.442;2024-01-30T09:19:43;11.80;99.90
23609;DHT22;11982;50.810;4.442;2024-01-30T09:22:09;11.80;99.90
23609;DHT22;11982;50.810;4.442;2024-01-30T09:24:35;11.80;99.90
23609;DHT22;11982;50.810;4.442;2024-01-30T09:27:00;11.90;99.90
23609;DHT22;11982;50.810;4.442;2024-01-30T09:29:26;12.00;99.90
23609;DHT22;11982;50.810;4.442;2024-01-30T09:31:52;11.90;99.90
23609;DHT22;11982;50.810;4.442;2024-01-30T09:34:17;11.90;99.90
23609;DHT22;11982;50.810;4.442;2024-01-30T09:36:43;11.90;99.90
23609;DHT22;11982;50.810;4.442;2024-01-30T09:39:09;12.00;99.90
23609;DHT22;11982;50.810;4.442;2024-01-30T09:41:41;11.90;99.90
23609;DHT22;11982;50.810;4.442;2024-01-30T09:44:11;11.90;99.90
23609;DHT22;11982;50.810;4.442;2024-01-30T09:46:38;11.80;99.90
23609;DHT22;11982;50.810;4.442;2024-01-30T09:49:04;11.80;99.90
23609;DHT22;11982;50.810;4.442;2024-01-30T09:51:31;11.80;99.90
23609;DHT22;11982;50.810;4.442;2024-01-30T09:53:57;11.80;99.90
23609;DHT22;11982;50.810;4.442;2024-01-30T09:56:23;11.80;99.90
23609;DHT22;11982;50.810;4.442;2024-01-30T09:58:49;11.80;99.90
23609;DHT22;11982;50.810;4.442;2024-01-30T10:01:15;11.70;99.90
23609;DHT22;11982;50.810;4.442;2024-01-30T10:03:44;11.60;99.90
23609;DHT22;11982;50.810;4.442;2024-01-30T10:06:10;11.60;99.90
23609;DHT22;11982;50.810;4.442;2024-01-30T10:08:36;11.70;99.90
23609;DHT22;11982;50.810;4.442;2024-01-30T10:11:02;11.80;99.90
23609;DHT22;11982;50.810;4.442;2024-01-30T10:13:28;11.70;99.90
23609;DHT22;11982;50.810;4.442;2024-01-30T10:15:55;11.70;99.90
23609;DHT22;11982;50.810;4.442;2024-01-30T10:18:22;11.70;99.90
23609;DHT22;11982;50.810;4.442;2024-01-30T10:20:48;11.70;99.90
23609;DHT22;11982;50.810;4.442;2024-01-30T10:23:14;11.70;99.90
23609;DHT22;11982;50.810;4.442;2024-01-30T10:25:39;11.70;99.90
23609;DHT22;11982;50.810;4.442;2024-01-30T10:28:05;11.70;99.90
23609;DHT22;11982;50.810;4.442;2024-01-30T10:30:31;11.80;99.90
23609;DHT22;11982;50.810;4.442;2024-01-30T10:32:57;11.70;99.90
23609;DHT22;11982;50.810;4.442;2024-01-30T10:35:23;11.70;99.90
23609;DHT22;11982;50.810;4.442;2024-01-30T10:37:48;11.60;99.90
23609;DHT22;11982;50.810;4.442;2024-01-30T10:40:15;11.60;99.90
23609;DHT22;11982;50.810;4.442;2024-01-30T10:42:44;11.60;99.90
23609;DHT22;11982;50.810;4.442;2024-01-30T10:45:14;11.60;99.90
23609;DHT22;11982;50.810;4.442;2024-01-30T10:47:49;11.60;99.90
23609;DHT22;11982;50.810;4.442;2024-01-30T10:50:15;11.60;99.90
23609;DHT22;11982;50.810;4.442;2024-01-30T10:52:42;11.70;99.90
23609;DHT22;11982;50.810;4.442;2024-01-30T10:55:08;11.70;99.90
23609;DHT22;11982;50.810;4.442;2024-01-30T10:57:37;11.80;99.90
23609;DHT22;11982;50.810;4.442;2024-01-30T11:00:15;11.80;99.90
23609;DHT22;11982;50.810;4.442;2024-01-30T11:02:44;11.80;99.90
23609;DHT22;11982;50.810;4.442;2024-01-30T11:05:11;11.70;99.90
23609;DHT22;11982;50.810;4.442;2024-01-30T11:07:39;11.60;99.90
23609;DHT22;11982;50.810;4.442;2024-01-30T11:10:05;11.50;99.90
23609;DHT22;11982;50.810;4.442;2024-01-30T11:12:38;11.50;99.90
23609;DHT22;11982;50.810;4.442;2024-01-30T11:15:11;11.50;99.90
23609;DHT22;11982;50.810;4.442;2024-01-30T11:17:41;11.50;99.90
23609;DHT22;11982;50.810;4.442;2024-01-30T11:20:20;11.40;99.90
23609;DHT22;11982;50.810;4.442;2024-01-30T11:22:46;11.20;99.90
23609;DHT22;11982;50.810;4.442;2024-01-30T11:25:17;11.20;99.90
23609;DHT22;11982;50.810;4.442;2024-01-30T11:27:44;11.20;99.90
23609;DHT22;11982;50.810;4.442;2024-01-30T11:30:10;11.20;99.90
23609;DHT22;11982;50.810;4.442;2024-01-30T11:32:36;11.20;99.90
23609;DHT22;11982;50.810;4.442;2024-01-30T11:35:04;11.10;99.90
23609;DHT22;11982;50.810;4.442;2024-01-30T11:37:31;11.20;99.90
23609;DHT22;11982;50.810;4.442;2024-01-30T11:39:58;11.10;99.90
23609;DHT22;11982;50.810;4.442;2024-01-30T11:42:24;11.20;99.90
23609;DHT22;11982;50.810;4.442;2024-01-30T11:44:50;11.20;99.90
23609;DHT22;11982;50.810;4.442;2024-01-30T11:47:16;11.20;99.90
23609;DHT22;11982;50.810;4.442;2024-01-30T11:49:43;11.20;99.90
23609;DHT22;11982;50.810;4.442;2024-01-30T11:52:09;11.20;99.90
23609;DHT22;11982;50.810;4.442;2024-01-30T11:54:35;11.20;99.90
23609;DHT22;11982;50.810;4.442;2024-01-30T11:57:01;11.10;99.90
23609;DHT22;11982;50.810;4.442;2024-01-30T11:59:26;11.10;99.90
23609;DHT22;11982;50.810;4.442;2024-01-30T12:01:52;11.10;99.90
23609;DHT22;11982;50.810;4.442;2024-01-30T12:04:18;11.00;99.90
23609;DHT22;11982;50.810;4.442;2024-01-30T12:06:44;10.90;99.90
23609;DHT22;11982;50.810;4.442;2024-01-30T12:09:10;11.00;99.90
23609;DHT22;11982;50.810;4.442;2024-01-30T12:11:47;10.90;99.90
23609;DHT22;11982;50.810;4.442;2024-01-30T12:14:13;11.10;99.90
23609;DHT22;11982;50.810;4.442;2024-01-30T12:16:39;11.10;99.90
23609;DHT22;11982;50.810;4.442;2024-01-30T12:19:08;11.10;99.90
23609;DHT22;11982;50.810;4.442;2024-01-30T12:21:34;11.20;99.90
23609;DHT22;11982;50.810;4.442;2024-01-30T12:24:00;11.20;99.90
23609;DHT22;11982;50.810;4.442;2024-01-30T12:26:26;11.20;99.90
23609;DHT22;11982;50.810;4.442;2024-01-30T12:28:56;11.20;99.90
23609;DHT22;11982;50.810;4.442;2024-01-30T12:31:31;11.10;99.90
23609;DHT22;11982;50.810;4.442;2024-01-30T12:33:59;11.10;99.90
23609;DHT22;11982;50.810;4.442;2024-01-30T12:36:25;10.90;99.90
23609;DHT22;11982;50.810;4.442;2024-01-30T12:38:51;10.80;99.90
23609;DHT22;11982;50.810;4.442;2024-01-30T12:41:17;10.70;99.90
23609;DHT22;11982;50.810;4.442;2024-01-30T12:43:44;10.60;99.90
23609;DHT22;11982;50.810;4.442;2024-01-30T12:46:10;10.50;99.90
23609;DHT22;11982;50.810;4.442;2024-01-30T12:48:35;10.50;99.90
23609;DHT22;11982;50.810;4.442;2024-01-30T12:51:01;10.70;99.90
23609;DHT22;11982;50.810;4.442;2024-01-30T12:53:27;10.80;99.90
23609;DHT22;11982;50.810;4.442;2024-01-30T12:55:53;11.10;99.90
23609;DHT22;11982;50.810;4.442;2024-01-30T12:58:20;11.30;99.90
23609;DHT22;11982;50.810;4.442;2024-01-30T13:00:45;11.40;99.90
23609;DHT22;11982;50.810;4.442;2024-01-30T13:03:12;11.40;99.90
23609;DHT22;11982;50.810;4.442;2024-01-30T13:05:38;11.40;99.90
23609;DHT22;11982;50.810;4.442;2024-01-30T13:08:04;11.40;99.90
23609;DHT22;11982;50.810;4.442;2024-01-30T13:10:30;11.30;99.90
23609;DHT22;11982;50.810;4.442;2024-01-30T13:12:56;11.20;99.90
23609;DHT22;11982;50.810;4.442;2024-01-30T13:15:21;11.20;99.90
23609;DHT22;11982;50.810;4.442;2024-01-30T13:17:48;11.30;99.90
23609;DHT22;11982;50.810;4.442;2024-01-30T13:20:14;11.40;99.90
23609;DHT22;11982;50.810;4.442;2024-01-30T13:22:45;11.30;99.90
23609;DHT22;11982;50.810;4.442;2024-01-30T13:25:10;11.40;99.90
23609;DHT22;11982;50.810;4.442;2024-01-30T13:27:37;11.20;99.90
23609;DHT22;11982;50.810;4.442;2024-01-30T13:30:03;11.10;99.90
23609;DHT22;11982;50.810;4.442;2024-01-30T13:32:29;11.10;99.90
23609;DHT22;11982;50.810;4.442;2024-01-30T13:34:55;11.10;99.90
23609;DHT22;11982;50.810;4.442;2024-01-30T13:37:21;11.20;99.90
23609;DHT22;11982;50.810;4.442;2024-01-30T13:39:47;11.10;99.90
23609;DHT22;11982;50.810;4.442;2024-01-30T13:42:12;11.10;99.90
23609;DHT22;11982;50.810;4.442;2024-01-30T13:44:38;11.10;99.90
23609;DHT22;11982;50.810;4.442;2024-01-30T13:47:04;11.10;99.90
23609;DHT22;11982;50.810;4.442;2024-01-30T13:49:30;11.00;99.90
23609;DHT22;11982;50.810;4.442;2024-01-30T13:51:56;11.00;99.90
23609;DHT22;11982;50.810;4.442;2024-01-30T13:54:21;11.00;99.90
23609;DHT22;11982;50.810;4.442;2024-01-30T13:56:47;11.00;99.90
23609;DHT22;11982;50.810;4.442;2024-01-30T13:59:13;11.10;99.90
23609;DHT22;11982;50.810;4.442;2024-01-30T14:01:38;11.10;99.90
23609;DHT22;11982;50.810;4.442;2024-01-30T14:04:04;11.20;99.90
23609;DHT22;11982;50.810;4.442;2024-01-30T14:06:30;11.10;99.90
23609;DHT22;11982;50.810;4.442;2024-01-30T14:08:55;11.20;99.90
23609;DHT22;11982;50.810;4.442;2024-01-30T14:11:21;11.00;99.90
23609;DHT22;11982;50.810;4.442;2024-01-30T14:13:47;11.00;99.90
23609;DHT22;11982;50.810;4.442;2024-01-30T14:16:12;11.00;99.90
23609;DHT22;11982;50.810;4.442;2024-01-30T14:18:38;10.90;99.90
23609;DHT22;11982;50.810;4.442;2024-01-30T14:21:04;11.00;99.90
23609;DHT22;11982;50.810;4.442;2024-01-30T14:23:29;11.00;99.90
23609;DHT22;11982;50.810;4.442;2024-01-30T14:25:55;11.00;99.90
23609;DHT22;11982;50.810;4.442;2024-01-30T14:28:21;11.10;99.90
23609;DHT22;11982;50.810;4.442;2024-01-30T14:30:47;11.10;99.90
23609;DHT22;11982;50.810;4.442;2024-01-30T14:33:12;11.00;99.90
23609;DHT22;11982;50.810;4.442;2024-01-30T14:35:38;11.00;99.90
23609;DHT22;11982;50.810;4.442;2024-01-30T14:38:04;10.90;99.90
23609;DHT22;11982;50.810;4.442;2024-01-30T14:40:31;10.80;99.90
23609;DHT22;11982;50.810;4.442;2024-01-30T14:42:56;10.80;99.90
23609;DHT22;11982;50.810;4.442;2024-01-30T14:45:22;10.80;99.90
23609;DHT22;11982;50.810;4.442;2024-01-30T14:47:48;10.90;99.90
23609;DHT22;11982;50.810;4.442;2024-01-30T14:50:14;10.90;99.90
23609;DHT22;11982;50.810;4.442;2024-01-30T14:52:42;10.70;99.90
23609;DHT22;11982;50.810;4.442;2024-01-30T14:55:08;10.60;99.90
23609;DHT22;11982;50.810;4.442;2024-01-30T14:57:34;10.70;99.90
23609;DHT22;11982;50.810;4.442;2024-01-30T15:00:00;10.80;99.90
23609;DHT22;11982;50.810;4.442;2024-01-30T15:02:26;10.60;99.90
23609;DHT22;11982;50.810;4.442;2024-01-30T15:04:52;10.50;99.90
23609;DHT22;11982;50.810;4.442;2024-01-30T15:07:18;10.40;99.90
23609;DHT22;11982;50.810;4.442;2024-01-30T15:09:44;10.30;99.90
23609;DHT22;11982;50.810;4.442;2024-01-30T15:12:10;10.30;99.90
23609;DHT22;11982;50.810;4.442;2024-01-30T15:14:35;10.20;99.90
23609;DHT22;11982;50.810;4.442;2024-01-30T15:17:01;10.10;99.90
23609;DHT22;11982;50.810;4.442;2024-01-30T15:19:27;10.00;99.90
23609;DHT22;11982;50.810;4.442;2024-01-30T15:21:52;10.00;99.90
23609;DHT22;11982;50.810;4.442;2024-01-30T15:24:18;9.90;99.90